Key West Nas /Boca Chica Field/ Airport
KNQX : now visible

Airfield :











YOU CAN JOIN US ON...

 
LOGIN :

Register | Disclaimer

   EN    FR    IT 

 









Legend :    VFR   Marginal VFR   IFR   Intensive IFR   Very Intensive IFR
Visi :
Ceiling :
>= 8 km
>= 3000ft
5 to 8 km
1000 to 3000 ft
1500m to 5 km
500 to 1000 ft
800 to 1500m
200 to 500 ft
< 800m
< 200 ft
Symbols :   Thunderstorms  Fog  Heavy snow  Heavy precipitations  Wind > 20 kt






- Airport Elevation : 6 ft


KNQX - Key West Nas /Boca Chica Field/

CURRENT METAR :
  • 172353Z 06008KT 10SM FEW015 SCT030 BKN055 24/21 A3022 RMK AO2 SLP231 60000 T02440211 10289 20239 53007

EXPIRED METARs :
  • 172253Z 06008KT 10SM FEW015 SCT030 BKN055 24/21 A3021 RMK AO2 RAB10E23 SLP228 P0000 T02390206
  • 172245Z 05008KT 10SM FEW015 SCT030 BKN055 24/21 A3021 RMK AO2 RAB10E23 P0000 T02390206
  • 172213Z 04012G17KT 4SM RA SCT015 BKN030 24/21 A3020 RMK AO2 RAB10 P0000 T02440211
  • 172153Z 04011KT 10SM SCT030 SCT250 26/21 A3020 RMK AO2 SLP226 T02560206

TAF COR TAF KNQX
Valid from the 17 at 23:00 until the 18 at 23:00 UTC


1723/1823 06008KT 9999 VCSH FEW015 SCT025 BKN055 QNH3016INS
FM180100 09012G18KT 9999 VCSH SCT025 BKN050 QNH3014INS
TEMPO 1801/1807 09018G25KT 8000 -SHRA BKN020 OVC050
BECMG 1807/1809 10020G28KT NSW FEW020 QNH3020INS AUTOMATED SENSOR METWATCH 1803 TIL 1811 T23/1811Z T26/1819Z COR2306 FN20073



MET'MAP, your aeronautical weather chart ! - Copyright ORBIFLY December 2007 - Disclaimer

ORBIFLY MET'MAP TEAM :

Programming & Development : Alexandra Zaïnal
Concept & original design : Baudouin d'Aumeries
Assistance for programming : Marc-Olivier Méhu
Technical & hardware support : Manuel Goepfert

Contact : metmap@orbifly.com




SOURCES & CREDITS :

   NOAA       Earth
Advisory